createdAt,value
2022-10-07T00:00:37.788Z,0.00
2022-10-07T00:01:37.811Z,0.00
2022-10-07T00:02:37.816Z,0.00
2022-10-07T00:03:37.718Z,0.00
2022-10-07T00:04:37.688Z,0.00
2022-10-07T00:05:37.680Z,0.00
2022-10-07T00:06:37.640Z,0.00
2022-10-07T00:07:37.616Z,0.00
2022-10-07T00:08:37.590Z,0.00
2022-10-07T00:09:37.562Z,0.00
2022-10-07T00:10:37.542Z,0.00
2022-10-07T00:11:37.517Z,0.00
2022-10-07T00:12:37.488Z,0.00
2022-10-07T00:13:37.469Z,0.00
2022-10-07T00:14:37.442Z,0.00
2022-10-07T00:15:37.417Z,0.00
2022-10-07T00:16:37.456Z,0.00
2022-10-07T00:17:37.382Z,0.00
2022-10-07T00:18:37.346Z,0.00
2022-10-07T00:19:37.318Z,0.00
2022-10-07T00:20:37.293Z,0.00
2022-10-07T00:21:37.294Z,0.00
2022-10-07T00:22:37.262Z,0.00
2022-10-07T00:23:37.219Z,0.00
2022-10-07T00:24:37.201Z,0.00
2022-10-07T00:25:37.170Z,0.00
2022-10-07T00:26:37.143Z,0.00
2022-10-07T00:27:37.122Z,0.00
2022-10-07T00:28:37.153Z,0.00
2022-10-07T00:29:37.076Z,0.00
2022-10-07T00:30:37.058Z,0.00
2022-10-07T00:31:37.039Z,0.00
2022-10-07T00:32:37.010Z,0.00
2022-10-07T00:33:36.973Z,0.00
2022-10-07T00:34:36.944Z,0.00
2022-10-07T00:35:36.935Z,0.00
2022-10-07T00:36:36.893Z,0.00
2022-10-07T00:37:36.873Z,0.00
2022-10-07T00:38:36.853Z,0.00
2022-10-07T00:39:36.823Z,0.00
2022-10-07T00:40:36.806Z,0.00
2022-10-07T00:41:36.771Z,0.00
2022-10-07T00:42:36.749Z,0.00
2022-10-07T00:43:36.726Z,0.00
2022-10-07T00:44:36.703Z,0.00
2022-10-07T00:45:36.735Z,0.00
2022-10-07T00:46:36.651Z,0.00
2022-10-07T00:47:36.625Z,0.00
2022-10-07T00:48:36.599Z,0.00
2022-10-07T00:49:36.584Z,0.00
2022-10-07T00:50:36.548Z,0.00
2022-10-07T00:51:36.520Z,0.00
2022-10-07T00:52:36.500Z,0.00
2022-10-07T00:53:36.481Z,0.00
2022-10-07T00:54:36.451Z,0.00
2022-10-07T00:55:36.454Z,0.00
2022-10-07T00:56:36.417Z,0.00
2022-10-07T00:57:36.379Z,0.00
2022-10-07T00:58:36.354Z,0.00
2022-10-07T00:59:36.345Z,0.00
2022-10-07T01:00:36.299Z,0.00
2022-10-07T01:01:36.311Z,0.00
2022-10-07T01:02:36.318Z,0.00
2022-10-07T01:03:36.234Z,0.00
2022-10-07T01:04:36.203Z,0.00
2022-10-07T01:05:36.182Z,0.00
2022-10-07T01:06:36.172Z,0.00
2022-10-07T01:07:36.138Z,0.00
2022-10-07T01:08:36.106Z,0.00
2022-10-07T01:09:36.165Z,0.00
2022-10-07T01:10:36.060Z,0.00
2022-10-07T01:11:36.032Z,0.00
2022-10-07T01:12:36.013Z,0.00
2022-10-07T01:13:35.980Z,0.00
2022-10-07T01:14:35.978Z,0.00
2022-10-07T01:15:35.941Z,0.00
2022-10-07T01:16:35.956Z,0.00
2022-10-07T01:17:35.887Z,0.00
2022-10-07T01:18:35.870Z,0.00
2022-10-07T01:19:35.851Z,0.00
2022-10-07T01:20:35.818Z,0.00
2022-10-07T01:21:35.786Z,0.00
2022-10-07T01:22:35.773Z,0.00
2022-10-07T01:23:35.735Z,0.00
2022-10-07T01:24:35.715Z,0.00
2022-10-07T01:25:35.687Z,0.00
2022-10-07T01:26:35.675Z,0.00
2022-10-07T01:27:35.636Z,0.00
2022-10-07T01:28:35.666Z,0.00
2022-10-07T01:29:35.602Z,0.00
2022-10-07T01:30:35.593Z,0.00
2022-10-07T01:31:35.537Z,0.00
2022-10-07T01:32:35.517Z,0.00
2022-10-07T01:33:35.488Z,0.00
2022-10-07T01:34:35.465Z,0.00
2022-10-07T01:35:35.440Z,0.00
2022-10-07T01:36:35.419Z,0.00
2022-10-07T01:37:35.390Z,0.00
2022-10-07T01:38:35.364Z,0.00
2022-10-07T01:39:35.363Z,0.00
2022-10-07T01:40:35.324Z,0.00
2022-10-07T01:41:35.288Z,0.00
2022-10-07T01:42:35.269Z,0.00
2022-10-07T01:43:35.241Z,0.00
2022-10-07T01:44:35.219Z,0.00
2022-10-07T01:45:35.195Z,0.00
2022-10-07T01:46:35.236Z,0.00
2022-10-07T01:47:35.154Z,0.00
2022-10-07T01:48:35.121Z,0.00
2022-10-07T01:49:35.096Z,0.00
2022-10-07T01:50:35.072Z,0.00
2022-10-07T01:51:35.044Z,0.00
2022-10-07T01:52:35.022Z,0.00
2022-10-07T01:53:34.993Z,0.00
2022-10-07T01:54:34.973Z,0.00
2022-10-07T01:55:34.945Z,0.00
2022-10-07T01:56:34.927Z,0.00
2022-10-07T01:57:34.908Z,0.00
2022-10-07T01:58:34.867Z,0.00
2022-10-07T01:59:34.848Z,0.00
2022-10-07T02:00:34.820Z,0.00
2022-10-07T02:01:34.859Z,0.00
2022-10-07T02:02:34.798Z,0.00
2022-10-07T02:03:34.772Z,0.00
2022-10-07T02:04:34.723Z,0.00
2022-10-07T02:05:34.696Z,0.00
2022-10-07T02:06:34.673Z,0.00
2022-10-07T02:07:34.648Z,0.00
2022-10-07T02:08:34.626Z,0.00
2022-10-07T02:09:34.610Z,0.00
2022-10-07T02:10:34.580Z,0.00
2022-10-07T02:11:34.547Z,0.00
2022-10-07T02:12:34.524Z,0.00
2022-10-07T02:13:34.500Z,0.00
2022-10-07T02:14:34.478Z,0.00
2022-10-07T02:15:34.502Z,0.00
2022-10-07T02:16:34.431Z,0.00
2022-10-07T02:17:34.401Z,0.00
2022-10-07T02:18:34.391Z,0.00
2022-10-07T02:19:34.350Z,0.00
2022-10-07T02:20:34.328Z,0.00
2022-10-07T02:21:34.299Z,0.00
2022-10-07T02:22:34.273Z,0.00
2022-10-07T02:23:34.272Z,0.00
2022-10-07T02:24:34.221Z,0.00
2022-10-07T02:25:34.201Z,0.00
2022-10-07T02:26:34.190Z,0.00
2022-10-07T02:27:34.147Z,0.00
2022-10-07T02:28:34.150Z,0.00
2022-10-07T02:29:34.109Z,0.00
2022-10-07T02:30:34.083Z,0.00
2022-10-07T02:31:34.137Z,0.00
2022-10-07T02:32:34.047Z,0.00
2022-10-07T02:33:34.008Z,0.00
2022-10-07T02:34:33.977Z,0.00
2022-10-07T02:35:33.956Z,0.00
2022-10-07T02:36:33.941Z,0.00
2022-10-07T02:37:33.901Z,0.00
2022-10-07T02:38:33.883Z,0.00
2022-10-07T02:39:33.853Z,0.00
2022-10-07T02:40:33.828Z,0.00
2022-10-07T02:41:33.805Z,0.00
2022-10-07T02:42:33.785Z,0.00
2022-10-07T02:43:33.754Z,0.00
2022-10-07T02:44:33.733Z,0.00
2022-10-07T02:45:33.704Z,0.00
2022-10-07T02:46:33.706Z,0.00
2022-10-07T02:47:33.655Z,0.00
2022-10-07T02:48:33.639Z,0.00
2022-10-07T02:49:33.613Z,0.00
2022-10-07T02:50:33.578Z,0.00
2022-10-07T02:51:33.564Z,0.00
2022-10-07T02:52:33.529Z,0.00
2022-10-07T02:53:33.505Z,0.00
2022-10-07T02:54:33.479Z,0.00
2022-10-07T02:55:33.457Z,0.00
2022-10-07T02:56:33.436Z,0.00
2022-10-07T02:57:33.410Z,0.00
2022-10-07T02:58:33.390Z,0.00
2022-10-07T02:59:33.361Z,0.00
2022-10-07T03:00:33.343Z,0.00
2022-10-07T03:01:33.417Z,0.00
2022-10-07T03:02:33.283Z,0.00
2022-10-07T03:03:33.357Z,0.00
2022-10-07T03:04:33.234Z,0.00
2022-10-07T03:05:33.213Z,0.00
2022-10-07T03:06:33.191Z,0.00
2022-10-07T03:07:33.160Z,0.00
2022-10-07T03:08:33.137Z,0.00
2022-10-07T03:09:33.114Z,0.00
2022-10-07T03:10:33.083Z,0.00
2022-10-07T03:11:33.066Z,0.00
2022-10-07T03:12:33.034Z,0.00
2022-10-07T03:13:33.011Z,0.00
2022-10-07T03:14:32.989Z,0.00
2022-10-07T03:15:33.002Z,0.00
2022-10-07T03:16:33.048Z,0.00
2022-10-07T03:17:32.915Z,0.00
2022-10-07T03:18:32.898Z,0.00
2022-10-07T03:19:32.865Z,0.00
2022-10-07T03:20:32.845Z,0.00
2022-10-07T03:21:32.817Z,0.00
2022-10-07T03:22:32.801Z,0.00
2022-10-07T03:23:32.766Z,0.00
2022-10-07T03:24:32.741Z,0.00
2022-10-07T03:25:32.722Z,0.00
2022-10-07T03:26:32.741Z,0.00
2022-10-07T03:27:32.667Z,0.00
2022-10-07T03:28:32.675Z,0.00
2022-10-07T03:29:32.643Z,0.00
2022-10-07T03:30:32.593Z,0.00
2022-10-07T03:31:32.663Z,0.00
2022-10-07T03:32:32.547Z,0.00
2022-10-07T03:33:32.523Z,0.00
2022-10-07T03:34:32.495Z,0.00
2022-10-07T03:35:32.474Z,0.00
2022-10-07T03:36:32.447Z,0.00
2022-10-07T03:37:32.426Z,0.00
2022-10-07T03:38:32.401Z,0.00
2022-10-07T03:39:32.376Z,0.00
2022-10-07T03:40:32.373Z,0.00
2022-10-07T03:41:32.328Z,0.00
2022-10-07T03:42:32.305Z,0.00
2022-10-07T03:43:32.286Z,0.00
2022-10-07T03:44:32.256Z,0.00
2022-10-07T03:45:32.226Z,0.00
2022-10-07T03:46:32.242Z,0.00
2022-10-07T03:47:32.178Z,0.00
2022-10-07T03:48:32.157Z,0.00
2022-10-07T03:49:32.132Z,0.00
2022-10-07T03:50:32.108Z,0.00
2022-10-07T03:51:32.082Z,0.00
2022-10-07T03:52:32.060Z,0.00
2022-10-07T03:53:32.040Z,0.00
2022-10-07T03:54:32.016Z,0.00
2022-10-07T03:55:31.983Z,0.00
2022-10-07T03:56:31.971Z,0.00
2022-10-07T03:57:31.932Z,0.00
2022-10-07T03:58:31.913Z,0.00
2022-10-07T03:59:31.888Z,0.00
2022-10-07T04:00:31.862Z,0.00
2022-10-07T04:01:32.003Z,0.00
2022-10-07T04:02:31.944Z,0.00
2022-10-07T04:03:31.784Z,0.00
2022-10-07T04:04:31.790Z,0.00
2022-10-07T04:05:31.748Z,0.00
2022-10-07T04:06:31.723Z,0.00
2022-10-07T04:07:31.697Z,0.00
2022-10-07T04:08:32.591Z,0.00
2022-10-07T04:09:31.644Z,0.00
2022-10-07T04:10:31.656Z,0.00
2022-10-07T04:11:31.590Z,0.00
2022-10-07T04:12:31.567Z,0.00
2022-10-07T04:13:31.547Z,0.00
2022-10-07T04:14:31.532Z,0.00
2022-10-07T04:15:31.508Z,0.00
2022-10-07T04:16:35.851Z,0.00
2022-10-07T04:17:31.440Z,0.00
2022-10-07T04:18:31.419Z,0.00
2022-10-07T04:19:31.401Z,0.00
2022-10-07T04:20:31.397Z,0.00
2022-10-07T04:21:31.347Z,0.00
2022-10-07T04:22:31.317Z,0.00
2022-10-07T04:23:31.306Z,0.00
2022-10-07T04:24:31.276Z,0.00
2022-10-07T04:25:31.250Z,0.00
2022-10-07T04:26:31.226Z,0.00
2022-10-07T04:27:50.740Z,0.00
2022-10-07T04:28:31.243Z,0.00
2022-10-07T04:29:34.205Z,0.00
2022-10-07T04:30:31.120Z,0.00
2022-10-07T04:31:31.158Z,0.00
2022-10-07T04:32:31.075Z,0.00
2022-10-07T04:33:31.052Z,0.00
2022-10-07T04:34:31.036Z,0.00
2022-10-07T04:35:30.998Z,0.00
2022-10-07T04:36:30.977Z,0.00
2022-10-07T04:37:30.961Z,0.00
2022-10-07T04:38:30.936Z,0.00
2022-10-07T04:39:56.066Z,0.00
2022-10-07T04:40:30.874Z,0.00
2022-10-07T04:41:30.852Z,0.00
2022-10-07T04:42:30.883Z,0.00
2022-10-07T04:43:30.802Z,0.00
2022-10-07T04:44:30.785Z,0.00
2022-10-07T04:45:30.750Z,0.00
2022-10-07T04:46:30.773Z,0.00
2022-10-07T04:47:30.727Z,0.00
2022-10-07T04:48:30.683Z,0.00
2022-10-07T04:49:30.683Z,0.00
2022-10-07T04:50:30.636Z,0.00
2022-10-07T04:51:30.624Z,0.00
2022-10-07T04:52:30.586Z,0.00
2022-10-07T04:53:30.561Z,0.00
2022-10-07T04:54:30.537Z,0.00
2022-10-07T04:55:30.513Z,0.00
2022-10-07T04:56:30.483Z,0.00
2022-10-07T04:57:30.486Z,0.00
2022-10-07T04:58:30.441Z,0.00
2022-10-07T04:59:30.485Z,0.00
2022-10-07T05:00:30.445Z,0.00
2022-10-07T05:01:30.485Z,0.00
2022-10-07T05:02:30.381Z,4.00
2022-10-07T05:03:30.322Z,4.00
2022-10-07T05:04:30.292Z,0.00
2022-10-07T05:05:30.267Z,4.00
2022-10-07T05:06:30.244Z,0.00
2022-10-07T05:07:30.225Z,4.00
2022-10-07T05:08:30.195Z,8.00
2022-10-07T05:09:30.185Z,4.00
2022-10-07T05:10:30.148Z,8.00
2022-10-07T05:11:30.126Z,8.00
2022-10-07T05:12:30.122Z,8.00
2022-10-07T05:13:30.075Z,12.00
2022-10-07T05:14:30.055Z,16.00
2022-10-07T05:15:30.027Z,20.00
2022-10-07T05:16:30.108Z,24.00
2022-10-07T05:17:29.979Z,24.00
2022-10-07T05:18:29.953Z,28.00
2022-10-07T05:19:29.935Z,32.00
2022-10-07T05:20:29.906Z,44.00
2022-10-07T05:21:29.883Z,48.00
2022-10-07T05:22:29.858Z,56.00
2022-10-07T05:23:29.834Z,64.00
2022-10-07T05:24:29.850Z,68.00
2022-10-07T05:25:29.779Z,76.00
2022-10-07T05:26:29.769Z,88.00
2022-10-07T05:27:29.736Z,96.00
2022-10-07T05:28:29.787Z,104.00
2022-10-07T05:29:29.691Z,120.00
2022-10-07T05:30:29.666Z,136.00
2022-10-07T05:31:29.689Z,152.00
2022-10-07T05:32:29.613Z,168.00
2022-10-07T05:33:29.584Z,184.00
2022-10-07T05:34:29.565Z,200.00
2022-10-07T05:35:29.539Z,216.00
2022-10-07T05:36:29.511Z,228.00
2022-10-07T05:37:29.488Z,240.00
2022-10-07T05:38:29.470Z,260.00
2022-10-07T05:39:29.474Z,276.00
2022-10-07T05:40:29.414Z,296.00
2022-10-07T05:41:29.389Z,328.00
2022-10-07T05:42:29.373Z,356.00
2022-10-07T05:43:29.336Z,368.00
2022-10-07T05:44:29.318Z,388.00
2022-10-07T05:45:29.322Z,408.00
2022-10-07T05:46:29.280Z,432.00
2022-10-07T05:47:29.248Z,456.00
2022-10-07T05:48:29.279Z,472.00
2022-10-07T05:49:29.194Z,488.00
2022-10-07T05:50:29.167Z,496.00
2022-10-07T05:51:29.174Z,528.00
2022-10-07T05:52:29.119Z,568.00
2022-10-07T05:53:29.101Z,620.00
2022-10-07T05:54:29.071Z,648.00
2022-10-07T05:55:29.048Z,676.00
2022-10-07T05:56:29.024Z,716.00
2022-10-07T05:57:29.003Z,772.00
2022-10-07T05:58:28.968Z,832.00
2022-10-07T05:59:28.950Z,884.00
2022-10-07T06:00:28.973Z,932.00
2022-10-07T06:01:28.906Z,1000.00
2022-10-07T06:02:28.982Z,1104.00
2022-10-07T06:03:28.929Z,1112.00
2022-10-07T06:04:28.824Z,1108.00
2022-10-07T06:05:28.801Z,1044.00
2022-10-07T06:06:28.781Z,1052.00
2022-10-07T06:07:29.589Z,1088.00
2022-10-07T06:08:28.730Z,1136.00
2022-10-07T06:09:28.706Z,1224.00
2022-10-07T06:10:28.697Z,1324.00
2022-10-07T06:11:28.656Z,1360.00
2022-10-07T06:12:28.638Z,1376.00
2022-10-07T06:13:28.617Z,1452.00
2022-10-07T06:14:28.586Z,1552.00
2022-10-07T06:15:28.561Z,1672.00
2022-10-07T06:16:28.627Z,1812.00
2022-10-07T06:17:28.530Z,1864.00
2022-10-07T06:18:28.488Z,1928.00
2022-10-07T06:19:28.459Z,1940.00
2022-10-07T06:20:28.493Z,2012.00
2022-10-07T06:21:28.629Z,1868.00
2022-10-07T06:22:28.386Z,1720.00
2022-10-07T06:23:28.372Z,1824.00
2022-10-07T06:24:28.338Z,1924.00
2022-10-07T06:25:28.321Z,1856.00
2022-10-07T06:26:28.289Z,1756.00
2022-10-07T06:27:28.266Z,1724.00
2022-10-07T06:28:28.306Z,1636.00
2022-10-07T06:29:28.238Z,1632.00
2022-10-07T06:30:28.304Z,1680.00
2022-10-07T06:31:28.167Z,1684.00
2022-10-07T06:32:28.151Z,1700.00
2022-10-07T06:33:28.142Z,1748.00
2022-10-07T06:34:28.097Z,1848.00
2022-10-07T06:35:28.079Z,2012.00
2022-10-07T06:36:28.050Z,1976.00
2022-10-07T06:37:28.027Z,1888.00
2022-10-07T06:38:27.998Z,1820.00
2022-10-07T06:39:27.977Z,1796.00
2022-10-07T06:40:27.967Z,1892.00
2022-10-07T06:41:27.926Z,1988.00
2022-10-07T06:42:27.906Z,2032.00
2022-10-07T06:43:27.883Z,2088.00
2022-10-07T06:44:27.853Z,2080.00
2022-10-07T06:45:27.829Z,2096.00
2022-10-07T06:46:27.873Z,2096.00
2022-10-07T06:47:27.790Z,2092.00
2022-10-07T06:48:27.753Z,2136.00
2022-10-07T06:49:27.741Z,2160.00
2022-10-07T06:50:27.776Z,2176.00
2022-10-07T06:51:27.684Z,2180.00
2022-10-07T06:52:27.661Z,2136.00
2022-10-07T06:53:27.638Z,2292.00
2022-10-07T06:54:27.615Z,2392.00
2022-10-07T06:55:27.590Z,2512.00
2022-10-07T06:56:27.569Z,2536.00
2022-10-07T06:57:56.003Z,2592.00
2022-10-07T06:58:27.515Z,2700.00
2022-10-07T06:59:27.490Z,2828.00
2022-10-07T07:00:27.487Z,2696.00
2022-10-07T07:01:27.507Z,2620.00
2022-10-07T07:02:27.453Z,2768.00
2022-10-07T07:03:27.391Z,2904.00
2022-10-07T07:04:27.372Z,3048.00
2022-10-07T07:05:27.363Z,2936.00
2022-10-07T07:06:27.323Z,2960.00
2022-10-07T07:07:27.311Z,3012.00
2022-10-07T07:08:27.278Z,3092.00
2022-10-07T07:09:27.254Z,3324.00
2022-10-07T07:10:27.229Z,3652.00
2022-10-07T07:11:27.200Z,3908.00
2022-10-07T07:12:27.178Z,3868.00
2022-10-07T07:13:27.152Z,4020.00
2022-10-07T07:14:27.125Z,4072.00
2022-10-07T07:15:27.105Z,4380.00
2022-10-07T07:16:27.133Z,4672.00
2022-10-07T07:17:27.077Z,4932.00
2022-10-07T07:18:27.039Z,5304.00
2022-10-07T07:19:27.007Z,5680.00
2022-10-07T07:20:26.986Z,6484.00
2022-10-07T07:21:26.967Z,5836.00
2022-10-07T07:22:26.956Z,4984.00
2022-10-07T07:23:26.923Z,4136.00
2022-10-07T07:24:26.887Z,3756.00
2022-10-07T07:25:26.873Z,3172.00
2022-10-07T07:26:26.855Z,2932.00
2022-10-07T07:27:26.826Z,2932.00
2022-10-07T07:28:26.862Z,3076.00
2022-10-07T07:29:26.770Z,3260.00
2022-10-07T07:30:26.896Z,3408.00
2022-10-07T07:31:26.724Z,3764.00
2022-10-07T07:32:26.699Z,4076.00
2022-10-07T07:33:26.682Z,4216.00
2022-10-07T07:34:26.659Z,4084.00
2022-10-07T07:35:26.634Z,3968.00
2022-10-07T07:36:26.608Z,4004.00
2022-10-07T07:37:26.581Z,4068.00
2022-10-07T07:38:26.632Z,4088.00
2022-10-07T07:39:26.536Z,4176.00
2022-10-07T07:40:26.510Z,4220.00
2022-10-07T07:41:26.488Z,4268.00
2022-10-07T07:42:26.460Z,4552.00
2022-10-07T07:43:26.441Z,4644.00
2022-10-07T07:44:28.243Z,4720.00
2022-10-07T07:45:26.396Z,4828.00
2022-10-07T07:46:26.406Z,4660.00
2022-10-07T07:47:26.347Z,4996.00
2022-10-07T07:48:26.330Z,5116.00
2022-10-07T07:49:26.306Z,5248.00
2022-10-07T07:50:26.280Z,4856.00
2022-10-07T07:51:26.270Z,5616.00
2022-10-07T07:52:26.233Z,5856.00
2022-10-07T07:53:26.212Z,5856.00
2022-10-07T07:54:26.195Z,6008.00
2022-10-07T07:55:26.169Z,6164.00
2022-10-07T07:56:26.161Z,6052.00
2022-10-07T07:57:26.137Z,6136.00
2022-10-07T07:58:26.104Z,6520.00
2022-10-07T07:59:26.081Z,6652.00
2022-10-07T08:00:26.062Z,6976.00
2022-10-07T08:01:26.115Z,7128.00
2022-10-07T08:02:26.065Z,6984.00
2022-10-07T08:03:25.999Z,7148.00
2022-10-07T08:04:25.976Z,7372.00
2022-10-07T08:05:25.962Z,7612.00
2022-10-07T08:06:25.936Z,8056.00
2022-10-07T08:07:25.909Z,8344.00
2022-10-07T08:08:25.891Z,8716.00
2022-10-07T08:09:25.870Z,8920.00
2022-10-07T08:10:25.849Z,9280.00
2022-10-07T08:11:25.841Z,9400.00
2022-10-07T08:12:25.812Z,8972.00
2022-10-07T08:13:25.794Z,7732.00
2022-10-07T08:14:25.770Z,9840.00
2022-10-07T08:15:25.751Z,9864.00
2022-10-07T08:16:25.732Z,9832.00
2022-10-07T08:17:25.715Z,9512.00
2022-10-07T08:18:25.689Z,9532.00
2022-10-07T08:19:25.671Z,8600.00
2022-10-07T08:20:25.660Z,8716.00
2022-10-07T08:21:25.640Z,9456.00
2022-10-07T08:22:25.622Z,10060.00
2022-10-07T08:23:25.599Z,9364.00
2022-10-07T08:24:25.645Z,10776.00
2022-10-07T08:25:25.559Z,9512.00
2022-10-07T08:26:25.539Z,11860.00
2022-10-07T08:27:25.521Z,10932.00
2022-10-07T08:28:25.556Z,12208.00
2022-10-07T08:29:25.481Z,12152.00
2022-10-07T08:30:25.461Z,14116.00
2022-10-07T08:31:25.462Z,11732.00
2022-10-07T08:32:25.428Z,14944.00
2022-10-07T08:33:25.406Z,18400.00
2022-10-07T08:34:25.391Z,19136.00
2022-10-07T08:35:25.369Z,19808.00
2022-10-07T08:36:25.358Z,20288.00
2022-10-07T08:37:25.335Z,14232.00
2022-10-07T08:38:25.315Z,23168.00
2022-10-07T08:39:25.296Z,23168.00
2022-10-07T08:40:25.280Z,16204.00
2022-10-07T08:41:25.261Z,15260.00
2022-10-07T08:42:25.289Z,22048.00
2022-10-07T08:43:25.231Z,19136.00
2022-10-07T08:44:25.220Z,14820.00
2022-10-07T08:45:25.190Z,27072.00
2022-10-07T08:46:25.222Z,14916.00
2022-10-07T08:47:25.155Z,27712.00
2022-10-07T08:48:25.139Z,26112.00
2022-10-07T08:49:25.123Z,27072.00
2022-10-07T08:50:25.105Z,25184.00
2022-10-07T08:51:25.090Z,26816.00
2022-10-07T08:52:25.067Z,27488.00
2022-10-07T08:53:25.056Z,28544.00
2022-10-07T08:54:25.037Z,27744.00
2022-10-07T08:55:25.017Z,24320.00
2022-10-07T08:56:25.012Z,21472.00
2022-10-07T08:57:25.008Z,22976.00
2022-10-07T08:58:25.038Z,24096.00
2022-10-07T08:59:24.951Z,28736.00
2022-10-07T09:00:24.976Z,34112.00
2022-10-07T09:01:24.977Z,31712.00
2022-10-07T09:02:24.974Z,30976.00
2022-10-07T09:03:25.371Z,30304.00
2022-10-07T09:04:24.859Z,28800.00
2022-10-07T09:05:24.864Z,28768.00
2022-10-07T09:06:24.842Z,30016.00
2022-10-07T09:07:24.811Z,23552.00
2022-10-07T09:08:24.792Z,23232.00
2022-10-07T09:09:24.777Z,29344.00
2022-10-07T09:10:24.756Z,32096.00
2022-10-07T09:11:24.745Z,33760.00
2022-10-07T09:12:24.725Z,35104.00
2022-10-07T09:13:24.715Z,33376.00
2022-10-07T09:14:24.690Z,32544.00
2022-10-07T09:15:24.675Z,32768.00
2022-10-07T09:16:24.660Z,32000.00
2022-10-07T09:17:24.642Z,29856.00
2022-10-07T09:18:24.614Z,26464.00
2022-10-07T09:19:24.602Z,26976.00
2022-10-07T09:20:24.587Z,27072.00
2022-10-07T09:21:24.570Z,36544.00
2022-10-07T09:22:24.550Z,27552.00
2022-10-07T09:23:24.537Z,35968.00
2022-10-07T09:24:24.540Z,35808.00
2022-10-07T09:25:24.502Z,36256.00
2022-10-07T09:26:24.490Z,37280.00
2022-10-07T09:27:24.468Z,38048.00
2022-10-07T09:28:24.546Z,38848.00
2022-10-07T09:29:24.434Z,39968.00
2022-10-07T09:30:24.419Z,38016.00
2022-10-07T09:31:24.467Z,28640.00
2022-10-07T09:32:24.382Z,41696.00
2022-10-07T09:33:24.368Z,40064.00
2022-10-07T09:34:24.359Z,40032.00
2022-10-07T09:35:24.351Z,36576.00
2022-10-07T09:36:24.319Z,40640.00
2022-10-07T09:37:24.304Z,41152.00
2022-10-07T09:38:24.285Z,41024.00
2022-10-07T09:39:24.272Z,40928.00
2022-10-07T09:40:24.281Z,43456.00
2022-10-07T09:41:27.844Z,42784.00
2022-10-07T09:42:24.223Z,44512.00
2022-10-07T09:43:24.212Z,45408.00
2022-10-07T09:44:24.214Z,45376.00
2022-10-07T09:45:24.178Z,40736.00
2022-10-07T09:46:24.248Z,37376.00
2022-10-07T09:47:24.150Z,39840.00
2022-10-07T09:48:24.141Z,39872.00
2022-10-07T09:49:24.507Z,40032.00
2022-10-07T09:50:24.108Z,37152.00
2022-10-07T09:51:24.106Z,27936.00
2022-10-07T09:52:24.075Z,36960.00
2022-10-07T09:53:24.060Z,36128.00
2022-10-07T09:54:24.046Z,32256.00
2022-10-07T09:55:24.031Z,39008.00
2022-10-07T09:56:24.019Z,42400.00
2022-10-07T09:57:24.008Z,34144.00
2022-10-07T09:58:23.986Z,37728.00
2022-10-07T09:59:23.973Z,40768.00
2022-10-07T10:00:24.019Z,32896.00
2022-10-07T10:01:23.945Z,31872.00
2022-10-07T10:02:24.213Z,31008.00
2022-10-07T10:03:24.003Z,37504.00
2022-10-07T10:04:23.902Z,37664.00
2022-10-07T10:05:23.885Z,39712.00
2022-10-07T10:06:23.875Z,38720.00
2022-10-07T10:07:23.859Z,34528.00
2022-10-07T10:08:23.847Z,29728.00
2022-10-07T10:09:23.832Z,34272.00
2022-10-07T10:10:23.823Z,36256.00
2022-10-07T10:11:23.817Z,37760.00
2022-10-07T10:12:23.787Z,38720.00
2022-10-07T10:13:23.780Z,40736.00
2022-10-07T10:14:23.762Z,42912.00
2022-10-07T10:15:23.747Z,46944.00
2022-10-07T10:16:23.784Z,44864.00
2022-10-07T10:17:23.720Z,42720.00
2022-10-07T10:18:23.716Z,43392.00
2022-10-07T10:19:23.702Z,41792.00
2022-10-07T10:20:23.689Z,37600.00
2022-10-07T10:21:23.667Z,37696.00
2022-10-07T10:22:23.655Z,53120.00
2022-10-07T10:23:23.657Z,56096.00
2022-10-07T10:24:23.626Z,50848.00
2022-10-07T10:25:23.635Z,41600.00
2022-10-07T10:26:23.597Z,48576.00
2022-10-07T10:27:23.587Z,47808.00
2022-10-07T10:28:23.645Z,43936.00
2022-10-07T10:29:23.560Z,44960.00
2022-10-07T10:30:23.550Z,45568.00
2022-10-07T10:31:23.650Z,44160.00
2022-10-07T10:32:23.520Z,43520.00
2022-10-07T10:33:23.509Z,42080.00
2022-10-07T10:34:23.504Z,41088.00
2022-10-07T10:35:23.488Z,38272.00
2022-10-07T10:36:23.471Z,37984.00
2022-10-07T10:37:23.491Z,36704.00
2022-10-07T10:38:23.452Z,37664.00
2022-10-07T10:39:23.476Z,35584.00
2022-10-07T10:40:23.974Z,35968.00
2022-10-07T10:41:23.598Z,34464.00
2022-10-07T10:42:23.408Z,32544.00
2022-10-07T10:43:23.389Z,31744.00
2022-10-07T10:44:24.412Z,30464.00
2022-10-07T10:45:23.487Z,29408.00
2022-10-07T10:46:23.573Z,29664.00
2022-10-07T10:47:23.349Z,29312.00
2022-10-07T10:48:23.331Z,28864.00
2022-10-07T10:49:23.315Z,26720.00
2022-10-07T10:50:23.305Z,25664.00
2022-10-07T10:51:23.293Z,26112.00
2022-10-07T10:52:23.284Z,26528.00
2022-10-07T10:53:23.273Z,26080.00
2022-10-07T10:54:23.261Z,25216.00
2022-10-07T10:55:23.256Z,24096.00
2022-10-07T10:56:23.240Z,24096.00
2022-10-07T10:57:23.295Z,23552.00
2022-10-07T10:58:23.212Z,22688.00
2022-10-07T10:59:23.202Z,22432.00
2022-10-07T11:00:23.195Z,21088.00
2022-10-07T11:01:23.258Z,20704.00
2022-10-07T11:02:23.289Z,20352.00
2022-10-07T11:03:23.260Z,21920.00
2022-10-07T11:04:23.145Z,21856.00
2022-10-07T11:05:23.131Z,22048.00
2022-10-07T11:06:23.124Z,23104.00
2022-10-07T11:07:23.108Z,22912.00
2022-10-07T11:08:26.483Z,23552.00
2022-10-07T11:09:26.334Z,23744.00
2022-10-07T11:10:23.075Z,23040.00
2022-10-07T11:11:23.065Z,21888.00
2022-10-07T11:12:23.055Z,22848.00
2022-10-07T11:13:23.040Z,23136.00
2022-10-07T11:14:23.031Z,23392.00
2022-10-07T11:15:23.025Z,23808.00
2022-10-07T11:16:23.036Z,23360.00
2022-10-07T11:17:22.999Z,22272.00
2022-10-07T11:18:22.990Z,21568.00
2022-10-07T11:19:22.983Z,21600.00
2022-10-07T11:20:22.969Z,21344.00
2022-10-07T11:21:22.954Z,19680.00
2022-10-07T11:22:22.943Z,18432.00
2022-10-07T11:23:22.945Z,17600.00
2022-10-07T11:24:22.923Z,16832.00
2022-10-07T11:25:22.916Z,17088.00
2022-10-07T11:26:22.904Z,18368.00
2022-10-07T11:27:22.891Z,19616.00
2022-10-07T11:28:22.921Z,20256.00
2022-10-07T11:29:22.874Z,20192.00
2022-10-07T11:30:22.862Z,20352.00
2022-10-07T11:31:22.899Z,21600.00
2022-10-07T11:32:22.848Z,21376.00
2022-10-07T11:33:22.850Z,21152.00
2022-10-07T11:34:22.811Z,21216.00
2022-10-07T11:35:22.807Z,20800.00
2022-10-07T11:36:22.791Z,19808.00
2022-10-07T11:37:22.782Z,19712.00
2022-10-07T11:38:22.808Z,19968.00
2022-10-07T11:39:22.760Z,20448.00
2022-10-07T11:40:26.827Z,21024.00
2022-10-07T11:41:22.741Z,20000.00
2022-10-07T11:42:22.730Z,19456.00
2022-10-07T11:43:22.718Z,20064.00
2022-10-07T11:44:22.707Z,20672.00
2022-10-07T11:45:22.693Z,21120.00
2022-10-07T11:46:22.722Z,21056.00
2022-10-07T11:47:22.673Z,21088.00
2022-10-07T11:48:22.663Z,20640.00
2022-10-07T11:49:22.658Z,21568.00
2022-10-07T11:50:22.648Z,22240.00
2022-10-07T11:51:22.631Z,22880.00
2022-10-07T11:52:22.625Z,21920.00
2022-10-07T11:53:22.620Z,23616.00
2022-10-07T11:54:22.603Z,24064.00
2022-10-07T11:55:22.593Z,23936.00
2022-10-07T11:56:22.591Z,23616.00
2022-10-07T11:57:22.569Z,22816.00
2022-10-07T11:58:22.566Z,20800.00
2022-10-07T11:59:22.547Z,19136.00
2022-10-07T12:00:22.544Z,18656.00
2022-10-07T12:01:22.534Z,18240.00
2022-10-07T12:02:22.565Z,18912.00
2022-10-07T12:03:22.579Z,18848.00
2022-10-07T12:04:22.507Z,19520.00
2022-10-07T12:05:22.493Z,20192.00
2022-10-07T12:06:22.486Z,20224.00
2022-10-07T12:07:22.491Z,20160.00
2022-10-07T12:08:22.468Z,19264.00
2022-10-07T12:09:22.463Z,18816.00
2022-10-07T12:10:22.467Z,18272.00
2022-10-07T12:11:22.441Z,17152.00
2022-10-07T12:12:22.425Z,16440.00
2022-10-07T12:13:22.458Z,15276.00
2022-10-07T12:14:22.409Z,14988.00
2022-10-07T12:15:22.406Z,15340.00
2022-10-07T12:16:22.407Z,16316.00
2022-10-07T12:17:22.389Z,16332.00
2022-10-07T12:18:22.368Z,15992.00
2022-10-07T12:19:23.893Z,17824.00
2022-10-07T12:20:22.349Z,18848.00
2022-10-07T12:21:22.339Z,18976.00
2022-10-07T12:22:22.331Z,19072.00
2022-10-07T12:23:22.376Z,19360.00
2022-10-07T12:24:22.312Z,18752.00
2022-10-07T12:25:22.300Z,17248.00
2022-10-07T12:26:22.406Z,16208.00
2022-10-07T12:27:22.277Z,15152.00
2022-10-07T12:28:22.333Z,15000.00